sensor_id;sensor_type;location;lat;lon;timestamp;P1;durP1;ratioP1;P2;durP2;ratioP2
23594;SDS011;11975;47.674;9.472;2023-04-03T00:01:08;27.85;;;26.25;;
23594;SDS011;11975;47.674;9.472;2023-04-03T00:03:35;28.02;;;26.42;;
23594;SDS011;11975;47.674;9.472;2023-04-03T00:06:01;27.95;;;26.35;;
23594;SDS011;11975;47.674;9.472;2023-04-03T00:08:27;28.33;;;26.73;;
23594;SDS011;11975;47.674;9.472;2023-04-03T00:10:52;26.60;;;25.10;;
23594;SDS011;11975;47.674;9.472;2023-04-03T00:13:18;26.15;;;24.65;;
23594;SDS011;11975;47.674;9.472;2023-04-03T00:15:44;26.70;;;25.10;;
23594;SDS011;11975;47.674;9.472;2023-04-03T00:18:10;26.65;;;25.13;;
23594;SDS011;11975;47.674;9.472;2023-04-03T00:20:36;25.10;;;23.70;;
23594;SDS011;11975;47.674;9.472;2023-04-03T00:23:02;25.48;;;24.08;;
23594;SDS011;11975;47.674;9.472;2023-04-03T00:25:29;25.80;;;24.38;;
23594;SDS011;11975;47.674;9.472;2023-04-03T00:27:54;26.02;;;24.35;;
23594;SDS011;11975;47.674;9.472;2023-04-03T00:30:21;25.05;;;23.65;;
23594;SDS011;11975;47.674;9.472;2023-04-03T00:32:48;24.67;;;23.27;;
23594;SDS011;11975;47.674;9.472;2023-04-03T00:35:14;25.35;;;23.95;;
23594;SDS011;11975;47.674;9.472;2023-04-03T00:37:43;25.33;;;23.92;;
23594;SDS011;11975;47.674;9.472;2023-04-03T00:40:10;25.95;;;24.45;;
23594;SDS011;11975;47.674;9.472;2023-04-03T00:42:37;25.50;;;24.05;;
23594;SDS011;11975;47.674;9.472;2023-04-03T00:47:29;24.88;;;23.48;;
23594;SDS011;11975;47.674;9.472;2023-04-03T00:49:56;25.15;;;23.75;;
23594;SDS011;11975;47.674;9.472;2023-04-03T00:52:24;26.35;;;24.73;;
23594;SDS011;11975;47.674;9.472;2023-04-03T00:54:52;25.92;;;24.42;;
23594;SDS011;11975;47.674;9.472;2023-04-03T00:57:20;24.92;;;23.52;;
23594;SDS011;11975;47.674;9.472;2023-04-03T00:59:49;24.83;;;23.42;;
23594;SDS011;11975;47.674;9.472;2023-04-03T01:02:16;24.92;;;23.52;;
23594;SDS011;11975;47.674;9.472;2023-04-03T01:04:42;24.40;;;23.00;;
23594;SDS011;11975;47.674;9.472;2023-04-03T01:07:10;25.27;;;23.88;;
23594;SDS011;11975;47.674;9.472;2023-04-03T01:09:38;24.88;;;23.48;;
23594;SDS011;11975;47.674;9.472;2023-04-03T01:12:25;24.83;;;23.43;;
23594;SDS011;11975;47.674;9.472;2023-04-03T01:15:05;25.05;;;23.65;;
23594;SDS011;11975;47.674;9.472;2023-04-03T01:17:35;24.70;;;23.30;;
23594;SDS011;11975;47.674;9.472;2023-04-03T01:25:53;25.25;;;23.85;;
23594;SDS011;11975;47.674;9.472;2023-04-03T01:28:23;25.35;;;23.95;;
23594;SDS011;11975;47.674;9.472;2023-04-03T01:33:43;26.35;;;24.85;;
23594;SDS011;11975;47.674;9.472;2023-04-03T01:36:14;25.48;;;24.02;;
23594;SDS011;11975;47.674;9.472;2023-04-03T01:38:43;25.92;;;24.42;;
23594;SDS011;11975;47.674;9.472;2023-04-03T01:41:09;24.83;;;23.42;;
23594;SDS011;11975;47.674;9.472;2023-04-03T01:43:35;25.00;;;23.60;;
23594;SDS011;11975;47.674;9.472;2023-04-03T01:46:01;25.35;;;23.85;;
23594;SDS011;11975;47.674;9.472;2023-04-03T01:48:27;24.90;;;23.50;;
23594;SDS011;11975;47.674;9.472;2023-04-03T01:50:53;26.33;;;24.83;;
23594;SDS011;11975;47.674;9.472;2023-04-03T01:53:19;25.83;;;24.43;;
23594;SDS011;11975;47.674;9.472;2023-04-03T01:55:45;25.98;;;24.48;;
23594;SDS011;11975;47.674;9.472;2023-04-03T01:58:11;25.65;;;24.25;;
23594;SDS011;11975;47.674;9.472;2023-04-03T02:00:37;25.75;;;24.33;;
23594;SDS011;11975;47.674;9.472;2023-04-03T02:03:03;25.67;;;24.23;;
23594;SDS011;11975;47.674;9.472;2023-04-03T02:05:29;25.50;;;24.02;;
23594;SDS011;11975;47.674;9.472;2023-04-03T02:07:55;25.88;;;24.17;;
23594;SDS011;11975;47.674;9.472;2023-04-03T02:10:21;26.17;;;23.85;;
23594;SDS011;11975;47.674;9.472;2023-04-03T02:12:47;25.13;;;23.73;;
23594;SDS011;11975;47.674;9.472;2023-04-03T02:15:13;25.30;;;23.90;;
23594;SDS011;11975;47.674;9.472;2023-04-03T02:17:39;24.75;;;23.35;;
23594;SDS011;11975;47.674;9.472;2023-04-03T02:20:05;24.75;;;23.35;;
23594;SDS011;11975;47.674;9.472;2023-04-03T02:22:32;25.13;;;23.70;;
23594;SDS011;11975;47.674;9.472;2023-04-03T02:24:58;24.30;;;22.90;;
23594;SDS011;11975;47.674;9.472;2023-04-03T02:27:24;24.58;;;23.17;;
23594;SDS011;11975;47.674;9.472;2023-04-03T02:29:50;24.48;;;23.08;;
23594;SDS011;11975;47.674;9.472;2023-04-03T02:32:16;24.30;;;22.90;;
23594;SDS011;11975;47.674;9.472;2023-04-03T02:34:41;23.63;;;22.33;;
23594;SDS011;11975;47.674;9.472;2023-04-03T02:37:07;24.45;;;23.05;;
23594;SDS011;11975;47.674;9.472;2023-04-03T02:39:33;24.23;;;22.90;;
23594;SDS011;11975;47.674;9.472;2023-04-03T02:42:00;25.00;;;23.50;;
23594;SDS011;11975;47.674;9.472;2023-04-03T02:44:26;24.77;;;23.38;;
23594;SDS011;11975;47.674;9.472;2023-04-03T02:46:51;24.50;;;23.10;;
23594;SDS011;11975;47.674;9.472;2023-04-03T02:49:17;24.70;;;23.23;;
23594;SDS011;11975;47.674;9.472;2023-04-03T02:51:43;24.58;;;23.17;;
23594;SDS011;11975;47.674;9.472;2023-04-03T02:54:09;25.15;;;23.67;;
23594;SDS011;11975;47.674;9.472;2023-04-03T02:56:35;25.27;;;23.88;;
23594;SDS011;11975;47.674;9.472;2023-04-03T02:59:01;24.90;;;23.50;;
23594;SDS011;11975;47.674;9.472;2023-04-03T03:01:27;25.08;;;23.67;;
23594;SDS011;11975;47.674;9.472;2023-04-03T03:03:57;24.50;;;23.10;;
23594;SDS011;11975;47.674;9.472;2023-04-03T03:06:23;25.00;;;23.50;;
23594;SDS011;11975;47.674;9.472;2023-04-03T03:08:49;25.48;;;24.08;;
23594;SDS011;11975;47.674;9.472;2023-04-03T03:11:15;24.55;;;23.15;;
23594;SDS011;11975;47.674;9.472;2023-04-03T03:13:41;24.85;;;23.45;;
23594;SDS011;11975;47.674;9.472;2023-04-03T03:16:07;25.52;;;24.02;;
23594;SDS011;11975;47.674;9.472;2023-04-03T03:18:33;24.70;;;23.30;;
23594;SDS011;11975;47.674;9.472;2023-04-03T03:21:00;24.95;;;23.55;;
23594;SDS011;11975;47.674;9.472;2023-04-03T03:23:27;24.98;;;23.48;;
23594;SDS011;11975;47.674;9.472;2023-04-03T03:28:20;25.13;;;23.73;;
23594;SDS011;11975;47.674;9.472;2023-04-03T03:30:46;24.90;;;23.50;;
23594;SDS011;11975;47.674;9.472;2023-04-03T03:33:12;25.67;;;24.27;;
23594;SDS011;11975;47.674;9.472;2023-04-03T03:35:38;25.92;;;24.42;;
23594;SDS011;11975;47.674;9.472;2023-04-03T03:38:04;25.02;;;23.63;;
23594;SDS011;11975;47.674;9.472;2023-04-03T03:40:30;25.90;;;24.05;;
23594;SDS011;11975;47.674;9.472;2023-04-03T03:42:56;24.63;;;23.23;;
23594;SDS011;11975;47.674;9.472;2023-04-03T03:45:22;25.80;;;24.33;;
23594;SDS011;11975;47.674;9.472;2023-04-03T03:47:48;25.30;;;23.90;;
23594;SDS011;11975;47.674;9.472;2023-04-03T03:50:13;24.80;;;23.40;;
23594;SDS011;11975;47.674;9.472;2023-04-03T03:52:39;25.40;;;23.90;;
23594;SDS011;11975;47.674;9.472;2023-04-03T03:55:06;25.55;;;24.05;;
23594;SDS011;11975;47.674;9.472;2023-04-03T03:57:32;24.75;;;23.35;;
23594;SDS011;11975;47.674;9.472;2023-04-03T03:59:58;27.35;;;25.75;;
23594;SDS011;11975;47.674;9.472;2023-04-03T04:02:24;25.67;;;24.23;;
23594;SDS011;11975;47.674;9.472;2023-04-03T04:04:49;25.90;;;24.40;;
23594;SDS011;11975;47.674;9.472;2023-04-03T04:07:15;25.10;;;23.70;;
23594;SDS011;11975;47.674;9.472;2023-04-03T04:09:41;25.13;;;23.73;;
23594;SDS011;11975;47.674;9.472;2023-04-03T04:12:07;25.23;;;23.80;;
23594;SDS011;11975;47.674;9.472;2023-04-03T04:14:33;26.10;;;24.58;;
23594;SDS011;11975;47.674;9.472;2023-04-03T04:16:59;25.77;;;24.27;;
23594;SDS011;11975;47.674;9.472;2023-04-03T04:19:28;25.52;;;24.02;;
23594;SDS011;11975;47.674;9.472;2023-04-03T04:21:54;25.15;;;23.75;;
23594;SDS011;11975;47.674;9.472;2023-04-03T04:24:20;25.55;;;24.13;;
23594;SDS011;11975;47.674;9.472;2023-04-03T04:26:46;24.88;;;23.48;;
23594;SDS011;11975;47.674;9.472;2023-04-03T04:29:11;24.90;;;23.50;;
23594;SDS011;11975;47.674;9.472;2023-04-03T04:31:37;25.05;;;23.65;;
23594;SDS011;11975;47.674;9.472;2023-04-03T04:34:03;24.67;;;23.27;;
23594;SDS011;11975;47.674;9.472;2023-04-03T04:36:30;24.63;;;23.23;;
23594;SDS011;11975;47.674;9.472;2023-04-03T04:38:56;25.45;;;23.95;;
23594;SDS011;11975;47.674;9.472;2023-04-03T04:41:22;25.03;;;23.63;;
23594;SDS011;11975;47.674;9.472;2023-04-03T04:43:48;25.30;;;23.70;;
23594;SDS011;11975;47.674;9.472;2023-04-03T04:46:15;24.75;;;23.35;;
23594;SDS011;11975;47.674;9.472;2023-04-03T04:48:41;24.42;;;23.02;;
23594;SDS011;11975;47.674;9.472;2023-04-03T04:51:07;25.23;;;23.83;;
23594;SDS011;11975;47.674;9.472;2023-04-03T04:53:33;25.23;;;23.73;;
23594;SDS011;11975;47.674;9.472;2023-04-03T04:55:59;25.05;;;23.65;;
23594;SDS011;11975;47.674;9.472;2023-04-03T17:57:33;25.85;;;24.35;;
23594;SDS011;11975;47.674;9.472;2023-04-03T18:00:00;25.65;;;24.17;;
23594;SDS011;11975;47.674;9.472;2023-04-03T18:02:25;25.40;;;23.90;;
23594;SDS011;11975;47.674;9.472;2023-04-03T18:04:52;25.10;;;23.70;;
23594;SDS011;11975;47.674;9.472;2023-04-03T18:07:18;25.40;;;23.90;;
23594;SDS011;11975;47.674;9.472;2023-04-03T18:09:45;25.70;;;24.20;;
23594;SDS011;11975;47.674;9.472;2023-04-03T18:12:12;24.10;;;22.80;;
23594;SDS011;11975;47.674;9.472;2023-04-03T18:14:38;24.83;;;23.40;;
23594;SDS011;11975;47.674;9.472;2023-04-03T18:17:04;24.40;;;22.98;;
23594;SDS011;11975;47.674;9.472;2023-04-03T18:19:31;24.40;;;23.00;;
23594;SDS011;11975;47.674;9.472;2023-04-03T18:21:59;23.67;;;22.38;;
23594;SDS011;11975;47.674;9.472;2023-04-03T18:24:27;24.42;;;23.02;;
23594;SDS011;11975;47.674;9.472;2023-04-03T18:27:01;23.85;;;22.45;;
23594;SDS011;11975;47.674;9.472;2023-04-03T18:29:31;24.20;;;22.90;;
23594;SDS011;11975;47.674;9.472;2023-04-03T18:31:58;23.60;;;22.30;;
23594;SDS011;11975;47.674;9.472;2023-04-03T18:34:25;24.65;;;23.25;;
23594;SDS011;11975;47.674;9.472;2023-04-03T18:36:51;24.98;;;23.30;;
23594;SDS011;11975;47.674;9.472;2023-04-03T18:39:18;23.88;;;22.58;;
23594;SDS011;11975;47.674;9.472;2023-04-03T18:41:43;23.92;;;22.58;;
23594;SDS011;11975;47.674;9.472;2023-04-03T18:44:10;23.70;;;22.30;;
23594;SDS011;11975;47.674;9.472;2023-04-03T18:46:37;23.80;;;22.45;;
23594;SDS011;11975;47.674;9.472;2023-04-03T18:49:03;23.60;;;22.30;;
23594;SDS011;11975;47.674;9.472;2023-04-03T18:51:29;24.55;;;23.15;;
23594;SDS011;11975;47.674;9.472;2023-04-03T18:53:55;23.83;;;22.50;;
23594;SDS011;11975;47.674;9.472;2023-04-03T18:56:21;24.35;;;22.95;;
23594;SDS011;11975;47.674;9.472;2023-04-03T18:58:48;23.27;;;21.98;;
23594;SDS011;11975;47.674;9.472;2023-04-03T19:01:13;23.98;;;22.58;;
23594;SDS011;11975;47.674;9.472;2023-04-03T19:03:40;24.33;;;22.92;;
23594;SDS011;11975;47.674;9.472;2023-04-03T19:06:06;24.45;;;23.05;;
23594;SDS011;11975;47.674;9.472;2023-04-03T19:08:32;23.70;;;22.40;;
23594;SDS011;11975;47.674;9.472;2023-04-03T19:10:58;23.52;;;22.23;;
23594;SDS011;11975;47.674;9.472;2023-04-03T19:13:24;24.80;;;23.40;;
23594;SDS011;11975;47.674;9.472;2023-04-03T19:15:51;24.40;;;22.90;;
23594;SDS011;11975;47.674;9.472;2023-04-03T19:18:17;24.98;;;23.52;;
23594;SDS011;11975;47.674;9.472;2023-04-03T19:20:43;23.70;;;22.40;;
23594;SDS011;11975;47.674;9.472;2023-04-03T19:23:09;24.00;;;22.65;;
23594;SDS011;11975;47.674;9.472;2023-04-03T19:25:37;24.02;;;22.63;;
23594;SDS011;11975;47.674;9.472;2023-04-03T19:28:03;24.02;;;22.63;;
23594;SDS011;11975;47.674;9.472;2023-04-03T19:30:29;23.50;;;22.20;;
23594;SDS011;11975;47.674;9.472;2023-04-03T19:32:56;24.45;;;23.05;;
23594;SDS011;11975;47.674;9.472;2023-04-03T19:35:22;23.92;;;22.63;;
23594;SDS011;11975;47.674;9.472;2023-04-03T19:37:48;23.35;;;22.05;;
23594;SDS011;11975;47.674;9.472;2023-04-03T19:40:15;23.67;;;22.38;;
23594;SDS011;11975;47.674;9.472;2023-04-03T19:42:42;24.27;;;22.90;;
23594;SDS011;11975;47.674;9.472;2023-04-03T19:45:08;23.25;;;21.95;;
23594;SDS011;11975;47.674;9.472;2023-04-03T19:47:35;24.30;;;22.92;;
23594;SDS011;11975;47.674;9.472;2023-04-03T19:50:02;23.90;;;22.50;;
23594;SDS011;11975;47.674;9.472;2023-04-03T19:52:28;24.40;;;22.95;;
23594;SDS011;11975;47.674;9.472;2023-04-03T19:54:54;24.10;;;22.70;;
23594;SDS011;11975;47.674;9.472;2023-04-03T19:57:20;23.98;;;22.48;;
23594;SDS011;11975;47.674;9.472;2023-04-03T19:59:46;23.40;;;22.10;;
23594;SDS011;11975;47.674;9.472;2023-04-03T20:02:12;22.88;;;21.58;;
23594;SDS011;11975;47.674;9.472;2023-04-03T20:04:38;22.95;;;21.58;;
23594;SDS011;11975;47.674;9.472;2023-04-03T20:07:04;23.40;;;22.10;;
23594;SDS011;11975;47.674;9.472;2023-04-03T20:09:30;23.77;;;22.48;;
23594;SDS011;11975;47.674;9.472;2023-04-03T20:11:57;23.48;;;22.17;;
23594;SDS011;11975;47.674;9.472;2023-04-03T20:16:51;23.77;;;22.38;;
23594;SDS011;11975;47.674;9.472;2023-04-03T20:19:17;22.42;;;21.23;;
23594;SDS011;11975;47.674;9.472;2023-04-03T20:21:44;22.92;;;21.63;;
23594;SDS011;11975;47.674;9.472;2023-04-03T20:24:10;23.40;;;22.10;;
23594;SDS011;11975;47.674;9.472;2023-04-03T20:26:36;23.27;;;21.98;;
23594;SDS011;11975;47.674;9.472;2023-04-03T20:29:08;22.90;;;21.60;;
23594;SDS011;11975;47.674;9.472;2023-04-03T20:31:34;22.67;;;21.38;;
23594;SDS011;11975;47.674;9.472;2023-04-03T20:34:00;22.88;;;21.58;;
23594;SDS011;11975;47.674;9.472;2023-04-03T20:36:26;23.53;;;22.23;;
23594;SDS011;11975;47.674;9.472;2023-04-03T20:41:19;23.17;;;21.88;;
23594;SDS011;11975;47.674;9.472;2023-04-03T20:43:45;22.90;;;21.60;;
23594;SDS011;11975;47.674;9.472;2023-04-03T20:46:12;23.52;;;22.20;;
23594;SDS011;11975;47.674;9.472;2023-04-03T20:48:39;23.88;;;22.58;;
23594;SDS011;11975;47.674;9.472;2023-04-03T20:51:09;23.37;;;22.07;;
23594;SDS011;11975;47.674;9.472;2023-04-03T20:53:35;23.30;;;22.00;;
23594;SDS011;11975;47.674;9.472;2023-04-03T20:56:02;23.23;;;21.92;;
23594;SDS011;11975;47.674;9.472;2023-04-03T20:58:28;22.77;;;21.48;;
23594;SDS011;11975;47.674;9.472;2023-04-03T21:00:57;23.60;;;22.30;;
23594;SDS011;11975;47.674;9.472;2023-04-03T21:03:24;22.93;;;21.63;;
23594;SDS011;11975;47.674;9.472;2023-04-03T21:20:27;23.35;;;22.05;;
23594;SDS011;11975;47.674;9.472;2023-04-03T21:22:53;23.73;;;22.33;;
23594;SDS011;11975;47.674;9.472;2023-04-03T21:25:19;23.40;;;22.10;;
23594;SDS011;11975;47.674;9.472;2023-04-03T21:27:45;23.67;;;22.38;;
23594;SDS011;11975;47.674;9.472;2023-04-03T21:30:12;23.90;;;22.60;;
23594;SDS011;11975;47.674;9.472;2023-04-03T21:32:40;23.75;;;22.45;;
23594;SDS011;11975;47.674;9.472;2023-04-03T21:35:06;24.08;;;22.67;;
23594;SDS011;11975;47.674;9.472;2023-04-03T21:37:32;23.70;;;22.30;;
23594;SDS011;11975;47.674;9.472;2023-04-03T21:39:58;23.83;;;22.42;;
23594;SDS011;11975;47.674;9.472;2023-04-03T21:42:24;23.60;;;22.30;;
23594;SDS011;11975;47.674;9.472;2023-04-03T21:44:50;23.50;;;22.20;;
23594;SDS011;11975;47.674;9.472;2023-04-03T21:47:16;23.90;;;22.50;;
23594;SDS011;11975;47.674;9.472;2023-04-03T21:49:43;23.83;;;22.52;;
23594;SDS011;11975;47.674;9.472;2023-04-03T21:52:09;23.33;;;22.02;;
23594;SDS011;11975;47.674;9.472;2023-04-03T21:54:35;23.50;;;22.13;;
23594;SDS011;11975;47.674;9.472;2023-04-03T21:57:01;23.50;;;22.10;;
23594;SDS011;11975;47.674;9.472;2023-04-03T21:59:27;23.30;;;22.00;;
23594;SDS011;11975;47.674;9.472;2023-04-03T22:01:53;24.08;;;22.67;;
23594;SDS011;11975;47.674;9.472;2023-04-03T22:04:19;24.20;;;22.70;;
23594;SDS011;11975;47.674;9.472;2023-04-03T22:06:45;23.85;;;22.55;;
23594;SDS011;11975;47.674;9.472;2023-04-03T22:09:12;23.42;;;22.13;;
23594;SDS011;11975;47.674;9.472;2023-04-03T22:11:37;24.35;;;22.95;;
23594;SDS011;11975;47.674;9.472;2023-04-03T22:14:10;23.38;;;22.08;;
23594;SDS011;11975;47.674;9.472;2023-04-03T22:16:36;23.90;;;22.60;;
23594;SDS011;11975;47.674;9.472;2023-04-03T22:19:03;23.80;;;22.50;;
23594;SDS011;11975;47.674;9.472;2023-04-03T22:21:29;23.70;;;22.40;;
23594;SDS011;11975;47.674;9.472;2023-04-03T22:23:55;23.48;;;22.17;;
23594;SDS011;11975;47.674;9.472;2023-04-03T22:26:21;23.65;;;22.25;;
23594;SDS011;11975;47.674;9.472;2023-04-03T22:28:47;23.88;;;22.58;;
23594;SDS011;11975;47.674;9.472;2023-04-03T22:31:13;23.67;;;22.38;;
23594;SDS011;11975;47.674;9.472;2023-04-03T22:33:41;23.88;;;22.58;;
23594;SDS011;11975;47.674;9.472;2023-04-03T22:36:08;24.38;;;22.98;;
23594;SDS011;11975;47.674;9.472;2023-04-03T22:41:02;23.75;;;22.45;;
23594;SDS011;11975;47.674;9.472;2023-04-03T22:43:30;24.27;;;22.88;;
23594;SDS011;11975;47.674;9.472;2023-04-03T22:45:58;23.75;;;22.45;;
23594;SDS011;11975;47.674;9.472;2023-04-03T22:48:24;23.73;;;22.42;;
23594;SDS011;11975;47.674;9.472;2023-04-03T22:50:51;24.67;;;23.30;;
23594;SDS011;11975;47.674;9.472;2023-04-03T22:53:17;24.42;;;23.02;;
23594;SDS011;11975;47.674;9.472;2023-04-03T22:55:43;24.08;;;22.77;;
23594;SDS011;11975;47.674;9.472;2023-04-03T22:58:09;24.33;;;22.92;;
23594;SDS011;11975;47.674;9.472;2023-04-03T23:00:35;24.30;;;22.90;;
23594;SDS011;11975;47.674;9.472;2023-04-03T23:03:01;24.17;;;22.77;;
23594;SDS011;11975;47.674;9.472;2023-04-03T23:05:27;23.60;;;22.30;;
23594;SDS011;11975;47.674;9.472;2023-04-03T23:07:53;26.13;;;24.23;;
23594;SDS011;11975;47.674;9.472;2023-04-03T23:10:19;23.90;;;22.60;;
23594;SDS011;11975;47.674;9.472;2023-04-03T23:12:45;24.05;;;22.73;;
23594;SDS011;11975;47.674;9.472;2023-04-03T23:15:11;23.98;;;22.67;;
23594;SDS011;11975;47.674;9.472;2023-04-03T23:17:39;23.75;;;22.45;;
23594;SDS011;11975;47.674;9.472;2023-04-03T23:20:05;24.42;;;23.02;;
23594;SDS011;11975;47.674;9.472;2023-04-03T23:22:32;24.40;;;23.00;;
23594;SDS011;11975;47.674;9.472;2023-04-03T23:24:58;24.83;;;23.42;;
23594;SDS011;11975;47.674;9.472;2023-04-03T23:27:23;24.10;;;22.80;;
23594;SDS011;11975;47.674;9.472;2023-04-03T23:29:49;24.38;;;22.98;;
23594;SDS011;11975;47.674;9.472;2023-04-03T23:32:15;24.88;;;23.48;;
23594;SDS011;11975;47.674;9.472;2023-04-03T23:34:41;25.25;;;23.75;;
23594;SDS011;11975;47.674;9.472;2023-04-03T23:37:10;24.05;;;22.75;;
23594;SDS011;11975;47.674;9.472;2023-04-03T23:39:37;24.75;;;23.35;;
23594;SDS011;11975;47.674;9.472;2023-04-03T23:42:03;24.65;;;23.25;;
23594;SDS011;11975;47.674;9.472;2023-04-03T23:44:33;24.70;;;23.30;;
23594;SDS011;11975;47.674;9.472;2023-04-03T23:46:59;24.60;;;23.20;;
23594;SDS011;11975;47.674;9.472;2023-04-03T23:49:25;24.17;;;22.85;;
23594;SDS011;11975;47.674;9.472;2023-04-03T23:51:52;24.90;;;23.50;;
23594;SDS011;11975;47.674;9.472;2023-04-03T23:54:18;25.23;;;23.73;;
